East Newport, Pennsylvania
Current Conditions -  °F | °C
As of 3:56 PM on Thursday 23 Oct 2014 (Local Time) from KCXY Reporting Station
Overcast Overcast  
Wind Chill: 62°   Ceiling: 4300
Heat Index: 62°   Visibility: 10mi
Dew Point: 45°   Wind: 16mph
Humidity: 53%   Direction: 320°NW
Pressure: 29.85"   Gusts: 22mph
Location:  40.4932°N, 77.217°W
Report Text: KCXY 231956Z 32014G19KT 10SM OVC043 17/07 A2985 RMK AO2 PK WND 32026/1933 SLP108 T01670072
Loading
Personal Weather Stations






























Interactive Weather Map
Tropical Storm Tracking
New forecast layout! Learn more

10-Day Weather Forecast

Advertisements
Track Severe Weather on mobile